METAR Reports - Misc

 

KGRB - Green Bay, Wisconsin, USA
Updated: 07/24/2024 8:53pm
Few Clouds
Few Clouds
 Wind from calm
Wind: Calm
Temperature: 70°F, 21°C
Dew Point: 63°F, 17°C
Humidity: 78%
Barometer: 30.16 inHg, 1021.3 hPa
Clouds: Few Clouds
Visibility: 10 miles, 16 km
Cloud details: Few Clouds 4800 ft
Few Clouds 5500 ft
2024/07/25 00:53 KGRB 250053Z 00000KT 10SM FEW048 FEW055 21/17 A3016 RMK AO2 SLP213 T02110172
KMCD - Mackinac Island, Michigan, USA
Updated: 07/24/2024 9:35pm
Clear
Clear
 Wind from N
Wind: N 6 mph, 9 km/h
Temperature: 64°F, 18°C
Dew Point: 55°F, 13°C
Humidity: 73%
Barometer: 30.13 inHg, 1020.3 hPa
Clouds: Clear
Visibility: 10 miles, 16 km
2024/07/25 01:35 KMCD 250135Z AUTO 35005KT 10SM CLR 18/13 A3013 RMK AO2 T01830128
 
K06C - Schaumburg, Illinois, USA
Updated: 07/24/2024 9:35pm
Overcast
Overcast
 Wind from ENE
Wind: ENE 6 mph, 9 km/h
Temperature: 70°F, 21°C
Dew Point: 61°F, 16°C
Humidity: 73%
Barometer: 30.17 inHg, 1021.7 hPa
Clouds: Overcast
Visibility: 10 miles, 16 km
Cloud details: Overcast 3800 ft
2024/07/25 01:35 K06C 250135Z AUTO 07005KT 10SM OVC038 21/16 A3017 RMK AO2 T02080163
KCLE - Cleveland, OH, USA
Updated: 07/24/2024 8:51pm
Mostly cloudy
Mostly cloudy
 Wind from NW
Wind: NW 6 mph, 9 km/h
Temperature: 75°F, 24°C
Dew Point: 61°F, 16°C
Humidity: 61%
Barometer: 30.10 inHg, 1019.3 hPa
Clouds: Mostly cloudy
Visibility: 10 miles, 16 km
Cloud details: Mostly cloudy 5500 ft
Mostly cloudy 25000 ft
2024/07/25 00:51 KCLE 250051Z 32005KT 10SM BKN055 BKN250 24/16 A3010 RMK AO2 SLP202 T02390161
 
KMMU - Morristown, New Jersey, USA
Updated: 07/24/2024 8:55pm
Partly cloudy
Partly cloudy
 Wind from SW
Wind: SW 5 mph, 7 km/h
Temperature: 79°F, 26°C
Dew Point: 73°F, 23°C
Humidity: 84%
Barometer: 30.08 inHg, 1018.6 hPa
Clouds: Partly cloudy
Visibility: 10 miles, 16 km
Cloud details: Partly cloudy 2500 ft
Partly cloudy 9000 ft
2024/07/25 00:55 KMMU 250055Z 22004KT 10SM SCT025 SCT090 26/23 A3008
KSDF - Louisville, Kentucky, USA
Updated: 07/24/2024 8:56pm
Light rain, Overcast
Light rain, Overcast
 Wind from ENE
Wind: ENE 6 mph, 9 km/h
Temperature: 79°F, 26°C
Dew Point: 63°F, 17°C
Humidity: 58%
Barometer: 30.14 inHg, 1020.7 hPa
Summary: Light rain
Clouds: Overcast
Visibility: 10 miles, 16 km
Cloud details: Few Clouds 3500 ft
Mostly cloudy 4000 ft
Mostly cloudy 10000 ft
Overcast 30000 ft
2024/07/25 00:56 KSDF 250056Z 06005KT 10SM -RA FEW035 BKN040TCU BKN100 OVC300 26/17 A3014 RMK AO2 LTG DSNT E AND NW RAB48 SLP202 TCU NW P0000 T02560167